Time;durP1;ratioP1;P1;durP2;ratioP2;P2;SDS_P1;SDS_P2;PMS_P1;PMS_P2;Temp;Humidity;BMP_temperature;BMP_pressure;BME280_temperature;BME280_humidity;BME280_pressure;Samples;Min_cycle;Max_cycle;Signal;HPM_P1;HPM_P2
2022/12/31 00:01:27;;;;;;;75.53;29.60;;;;;;;-141.97;90.68;47753.56;5034734;28;20622;-83
2022/12/31 00:03:53;;;;;;;80.90;33.07;;;;;;;-141.97;91.28;47795.88;5016945;28;20209;-84
2022/12/31 00:06:24;;;;;;;88.43;35.90;;;;;;;-141.97;92.36;47813.16;5035333;28;20440;-83
2022/12/31 00:08:52;;;;;;;90.93;36.97;;;;;;;-141.97;92.91;47782.41;5034673;28;20415;-83
2022/12/31 00:11:18;;;;;;;101.10;39.97;;;;;;;-141.97;95.44;47853.53;5034605;28;20405;-83
2022/12/31 00:13:45;;;;;;;92.43;39.53;;;;;;;-141.97;97.32;47809.31;5034476;28;20408;-83
2022/12/31 00:16:16;;;;;;;94.60;39.17;;;;;;;-141.97;97.33;47767.03;5034840;28;20905;-84
2022/12/31 00:18:44;;;;;;;98.73;38.60;;;;;;;-141.97;96.88;47799.72;5034311;28;20462;-82
2022/12/31 00:21:10;;;;;;;95.47;38.63;;;;;;;-141.97;96.48;47795.88;5034946;28;20405;-83
2022/12/31 00:23:36;;;;;;;92.20;38.27;;;;;;;-141.97;96.51;47815.09;5034516;28;20419;-84
2022/12/31 00:26:12;;;;;;;89.30;38.23;;;;;;;-141.97;96.35;47803.56;5034370;28;20401;-84
2022/12/31 00:28:37;;;;;;;92.07;37.33;;;;;;;-141.97;96.23;47815.09;5034150;28;20162;-85
2022/12/31 00:31:09;;;;;;;89.90;36.53;;;;;;;-141.97;95.58;47782.41;5034543;28;20409;-83
2022/12/31 00:33:34;;;;;;;88.60;34.90;;;;;;;-141.97;95.51;47818.94;5034529;28;20245;-83
2022/12/31 00:36:11;;;;;;;98.20;40.43;;;;;;;-141.97;95.15;47807.41;5034040;28;20514;-83
2022/12/31 00:38:38;;;;;;;102.83;42.23;;;;;;;-141.97;94.00;47815.09;5033682;28;20245;-83
2022/12/31 00:41:05;;;;;;;161.87;60.23;;;;;;;-141.97;92.76;47820.84;5034970;28;20848;-83
2022/12/31 00:43:30;;;;;;;179.37;68.10;;;;;;;-141.97;91.52;47797.78;5035685;28;20401;-85
2022/12/31 00:45:56;;;;;;;254.60;95.10;;;;;;;-141.97;90.42;47778.56;5034922;28;20431;-82
2022/12/31 00:48:21;;;;;;;197.23;72.83;;;;;;;-141.97;89.38;47807.41;5034562;28;20702;-84
2022/12/31 00:50:47;;;;;;;101.90;44.33;;;;;;;-141.97;88.80;47788.19;5034265;28;20231;-83
2022/12/31 00:53:12;;;;;;;103.13;43.63;;;;;;;-141.97;88.16;47866.97;5016494;28;20166;-83
2022/12/31 00:55:37;;;;;;;97.53;40.57;;;;;;;-141.97;87.99;47826.63;5017338;28;20176;-82
2022/12/31 00:58:03;;;;;;;87.13;36.63;;;;;;;-141.97;88.04;47811.25;5034887;28;20154;-84
2022/12/31 01:00:28;;;;;;;91.10;37.27;;;;;;;-141.97;87.44;47826.63;5032389;28;20174;-83
2022/12/31 01:02:54;;;;;;;83.03;33.67;;;;;;;-141.97;87.70;47778.56;5034225;28;20166;-83
2022/12/31 01:05:19;;;;;;;70.60;32.10;;;;;;;-141.97;88.13;47730.50;5033744;28;20177;-84
2022/12/31 01:07:44;;;;;;;73.03;30.43;;;;;;;-141.97;88.43;47730.50;5033557;28;20705;-82
2022/12/31 01:10:10;;;;;;;65.67;27.67;;;;;;;-141.97;88.53;47792.03;5033535;28;20163;-85
2022/12/31 01:12:35;;;;;;;62.07;27.73;;;;;;;-141.97;88.26;47713.22;5033727;28;20637;-82
2022/12/31 01:15:01;;;;;;;61.57;25.80;;;;;;;-141.97;89.89;47838.16;5033744;28;20308;-83
2022/12/31 01:17:27;;;;;;;61.03;26.67;;;;;;;-141.97;90.91;47801.63;5033303;28;20161;-82
2022/12/31 01:19:52;;;;;;;64.97;27.67;;;;;;;-141.97;92.33;47815.09;5033919;28;20173;-83
2022/12/31 01:22:17;;;;;;;64.30;28.33;;;;;;;-141.97;92.23;47826.63;5015702;28;20409;-84
2022/12/31 01:24:43;;;;;;;64.40;27.07;;;;;;;-141.97;94.26;47857.38;5032933;28;20537;-84
2022/12/31 01:27:08;;;;;;;63.97;26.30;;;;;;;-141.97;94.94;47788.19;5033206;28;20243;-83
2022/12/31 01:29:34;;;;;;;63.80;26.27;;;;;;;-141.97;95.63;47757.41;5032705;28;20635;-82
2022/12/31 01:31:59;;;;;;;66.40;27.97;;;;;;;-141.97;96.04;47828.53;5032651;28;20708;-82
2022/12/31 01:34:24;;;;;;;59.27;26.73;;;;;;;-141.97;96.20;47682.47;5033260;28;20181;-83
2022/12/31 01:36:50;;;;;;;59.73;26.87;;;;;;;-141.97;96.17;47811.25;5033517;28;20237;-84
2022/12/31 01:39:15;;;;;;;64.57;28.57;;;;;;;-141.97;96.38;47815.09;5033410;28;20617;-84
2022/12/31 01:41:44;;;;;;;68.10;26.07;;;;;;;-141.97;95.97;47809.31;5033615;28;20220;-83
2022/12/31 01:44:09;;;;;;;65.57;28.13;;;;;;;-141.97;96.13;47784.34;5033017;28;20173;-82
2022/12/31 01:46:48;;;;;;;70.07;28.27;;;;;;;-141.97;96.26;47795.88;5033020;28;20456;-82
2022/12/31 01:49:20;;;;;;;73.83;29.13;;;;;;;-141.97;96.09;47761.25;5034211;28;20618;-81
2022/12/31 01:51:51;;;;;;;60.10;28.00;;;;;;;-141.97;96.61;47822.78;5033646;28;20419;-82
2022/12/31 01:54:21;;;;;;;72.43;29.07;;;;;;;-141.97;97.03;47686.31;5033679;28;20488;-83
2022/12/31 01:56:48;;;;;;;70.17;29.47;;;;;;;-141.97;97.10;47797.78;5036134;28;20397;-82
2022/12/31 01:59:17;;;;;;;62.40;28.17;;;;;;;-141.97;97.33;47768.94;5038158;28;20401;-83
2022/12/31 02:01:45;;;;;;;72.70;30.07;;;;;;;-141.97;96.90;47842.00;5037364;28;20457;-82
2022/12/31 02:04:12;;;;;;;72.33;30.90;;;;;;;-141.97;96.76;47807.41;5032951;28;20397;-84
2022/12/31 02:06:40;;;;;;;68.07;29.67;;;;;;;-141.97;96.51;47834.31;5032591;28;20467;-83
2022/12/31 02:09:07;;;;;;;75.13;31.13;;;;;;;-141.97;96.97;47795.88;5032399;28;20491;-83
2022/12/31 02:11:35;;;;;;;82.50;33.57;;;;;;;-141.97;96.78;47818.94;5032265;28;20404;-83
2022/12/31 02:14:32;;;;;;;74.43;32.50;;;;;;;-141.97;96.86;47840.06;5014924;28;20467;-82
2022/12/31 02:17:16;;;;;;;74.43;32.50;;;;;;;-141.97;97.55;47797.78;4990453;28;20418;-84
2022/12/31 02:20:04;;;;;;;74.17;30.37;;;;;;;-141.97;97.36;47778.56;4990878;28;20425;-82
2022/12/31 02:22:48;;;;;;;78.00;31.70;;;;;;;-141.97;97.12;47838.16;4990211;28;20974;-82
2022/12/31 02:25:20;;;;;;;67.53;27.43;;;;;;;-141.97;97.44;47805.47;4990396;28;20513;-82
2022/12/31 02:28:10;;;;;;;66.20;28.57;;;;;;;-141.97;97.53;47790.09;4990677;28;20481;-82
2022/12/31 02:30:36;;;;;;;67.03;29.37;;;;;;;-141.97;97.25;47788.19;4990437;28;20418;-82
2022/12/31 02:33:27;;;;;;;71.50;30.17;;;;;;;-141.97;97.40;47830.47;4990550;28;20417;-82
2022/12/31 02:35:56;;;;;;;73.17;29.50;;;;;;;-141.97;97.24;47845.84;4990621;28;20399;-83
2022/12/31 02:38:43;;;;;;;75.77;30.10;;;;;;;-141.97;97.98;47822.78;4990608;28;20681;-83
2022/12/31 02:43:57;;;;;;;70.23;28.20;;;;;;;-141.97;99.27;47776.63;4996360;28;20942;-83
2022/12/31 02:46:47;;;;;;;78.30;29.23;;;;;;;-141.97;100.00;47792.03;4994674;28;20457;-83
2022/12/31 02:49:22;;;;;;;76.50;30.80;;;;;;;-141.97;100.00;47818.94;4978337;28;20182;-82
2022/12/31 02:52:07;;;;;;;77.47;31.70;;;;;;;-141.97;100.00;47799.72;4995009;28;20404;-83
2022/12/31 02:54:40;;;;;;;78.10;30.97;;;;;;;-141.97;100.00;47793.94;5011837;28;20425;-82
2022/12/31 02:57:15;;;;;;;83.63;34.73;;;;;;;-141.97;100.00;47782.41;5016468;28;20394;-83
2022/12/31 03:02:32;;;;;;;112.67;44.93;;;;;;;-141.97;100.00;47786.25;5023602;28;20405;-83
2022/12/31 03:05:01;;;;;;;106.43;44.57;;;;;;;-141.97;100.00;47822.78;5024437;28;20417;-83
2022/12/31 03:07:28;;;;;;;98.47;41.30;;;;;;;-141.97;100.00;47815.09;5025086;28;20542;-83
2022/12/31 03:09:54;;;;;;;91.13;38.87;;;;;;;-141.97;100.00;47826.63;5022194;28;20410;-82
2022/12/31 03:15:20;;;;;;;93.93;39.00;;;;;;;-141.97;100.00;47828.53;4983577;28;20777;-82
2022/12/31 03:17:59;;;;;;;94.87;38.80;;;;;;;-141.97;100.00;47820.84;4955830;29;20435;-82
2022/12/31 03:23:39;;;;;;;99.37;40.60;;;;;;;-141.97;100.00;47830.47;4955398;29;20411;-83
2022/12/31 03:26:10;;;;;;;83.67;35.73;;;;;;;-141.97;100.00;47801.63;4938995;29;20805;-83
2022/12/31 03:28:41;;;;;;;86.17;35.03;;;;;;;-141.97;100.00;47815.09;4956489;29;20458;-82
2022/12/31 03:31:07;;;;;;;88.33;35.13;;;;;;;-141.97;100.00;47797.78;4969707;29;20527;-82
2022/12/31 03:33:35;;;;;;;99.13;43.67;;;;;;;-141.97;100.00;47807.41;4958936;29;20427;-83
2022/12/31 03:36:07;;;;;;;112.13;47.53;;;;;;;-141.97;100.00;47795.88;4965187;29;20401;-82
2022/12/31 03:38:32;;;;;;;88.87;37.07;;;;;;;-141.97;100.00;47824.69;4992603;28;21013;-82
2022/12/31 03:40:59;;;;;;;88.73;34.60;;;;;;;-141.97;100.00;47801.63;5011286;28;20445;-82
2022/12/31 03:43:25;;;;;;;74.13;31.80;;;;;;;-141.97;100.00;47832.38;5009135;28;20545;-82
2022/12/31 03:45:52;;;;;;;73.63;34.00;;;;;;;-141.97;100.00;47788.19;4995802;28;20191;-82
2022/12/31 03:48:18;;;;;;;75.80;30.73;;;;;;;-141.97;100.00;47788.19;4992692;28;20179;-82
2022/12/31 03:50:44;;;;;;;61.53;26.47;;;;;;;-141.97;100.00;47799.72;4993070;28;20553;-82
2022/12/31 03:53:09;;;;;;;59.50;26.07;;;;;;;-141.97;100.00;47851.59;5011285;28;20414;-82
2022/12/31 03:55:35;;;;;;;59.23;25.87;;;;;;;-141.97;100.00;47830.47;5014580;28;20210;-82
2022/12/31 03:58:00;;;;;;;100.23;39.43;;;;;;;-141.97;100.00;47778.56;5014250;28;20214;-82
2022/12/31 04:00:26;;;;;;;74.13;30.37;;;;;;;-141.97;100.00;47713.22;5013362;28;20331;-83
2022/12/31 04:02:51;;;;;;;81.70;31.97;;;;;;;-141.97;100.00;47749.72;5014642;28;20170;-82
2022/12/31 04:05:18;;;;;;;88.03;32.40;;;;;;;-141.97;100.00;47834.31;5014739;28;20492;-82
2022/12/31 04:07:44;;;;;;;77.90;32.07;;;;;;;-141.97;100.00;47795.88;5014424;28;20193;-82
2022/12/31 04:10:12;;;;;;;84.17;34.00;;;;;;;-141.97;100.00;47849.69;5014696;28;20493;-82
2022/12/31 04:12:37;;;;;;;86.07;32.23;;;;;;;-141.97;100.00;47813.16;5014489;28;20217;-82
2022/12/31 04:15:04;;;;;;;87.43;33.43;;;;;;;-141.97;100.00;47778.56;5014439;28;20405;-81
2022/12/31 04:17:30;;;;;;;80.03;32.73;;;;;;;-141.97;100.00;47807.41;5015930;28;20620;-82
2022/12/31 04:19:55;;;;;;;74.50;30.90;;;;;;;-141.97;100.00;47772.78;5015623;28;20471;-82
2022/12/31 04:22:21;;;;;;;71.23;30.53;;;;;;;-141.97;100.00;47803.56;5014494;28;20162;-82
2022/12/31 04:24:46;;;;;;;77.43;32.07;;;;;;;-141.97;100.00;47757.41;5014795;28;20613;-82
2022/12/31 04:27:12;;;;;;;72.00;30.70;;;;;;;-141.97;100.00;47724.75;5015020;28;20195;-82
2022/12/31 04:29:38;;;;;;;78.87;31.20;;;;;;;-141.97;100.00;47780.47;5014887;28;20202;-82
2022/12/31 04:32:04;;;;;;;74.83;32.07;;;;;;;-141.97;100.00;47803.56;5016041;28;20242;-82
2022/12/31 04:34:30;;;;;;;77.37;33.77;;;;;;;-141.97;100.00;47751.66;5018569;28;20167;-84
2022/12/31 04:36:55;;;;;;;76.07;32.57;;;;;;;-141.97;100.00;47784.34;5016633;28;20544;-82
2022/12/31 04:39:21;;;;;;;73.07;31.57;;;;;;;-141.97;100.00;47732.44;5014940;28;20222;-83
2022/12/31 04:41:46;;;;;;;74.97;32.57;;;;;;;-141.97;100.00;47824.69;5014070;28;20269;-83
2022/12/31 04:44:12;;;;;;;76.60;32.07;;;;;;;-141.97;99.88;47776.63;5014439;28;20650;-83
2022/12/31 04:46:37;;;;;;;85.70;36.20;;;;;;;-141.97;99.29;47768.94;5014836;28;20270;-83
2022/12/31 04:49:03;;;;;;;144.87;56.30;;;;;;;-141.97;99.38;47799.72;5014778;28;20665;-82
2022/12/31 04:51:30;;;;;;;88.43;37.27;;;;;;;-141.97;98.80;47790.09;5014587;28;20163;-84
2022/12/31 04:53:56;;;;;;;86.63;36.03;;;;;;;-141.97;98.52;47832.38;5014740;28;20278;-83
2022/12/31 04:56:22;;;;;;;139.30;49.87;;;;;;;-141.97;98.78;47842.00;5014452;28;20397;-83
2022/12/31 04:58:48;;;;;;;221.23;74.37;;;;;;;-141.97;98.63;47757.41;5014545;28;20912;-83
2022/12/31 05:01:13;;;;;;;114.90;44.37;;;;;;;-141.97;98.37;47792.03;5014359;28;20163;-83
2022/12/31 05:03:39;;;;;;;136.80;53.63;;;;;;;-141.97;98.54;47803.56;5013905;28;20603;-83
2022/12/31 05:06:11;;;;;;;95.53;38.90;;;;;;;-141.97;98.49;47805.47;5012985;28;20167;-82
2022/12/31 05:08:37;;;;;;;102.67;39.57;;;;;;;-141.97;98.40;47753.56;4996198;28;20167;-82
2022/12/31 05:11:03;;;;;;;214.20;70.03;;;;;;;-141.97;97.82;47803.56;5014401;28;20417;-82
2022/12/31 05:13:29;;;;;;;324.23;96.03;;;;;;;-141.97;97.30;47692.06;5014382;28;20159;-82
2022/12/31 05:15:54;;;;;;;212.47;71.97;;;;;;;-141.97;96.85;47870.81;5014277;28;20619;-82
2022/12/31 05:18:20;;;;;;;190.37;75.40;;;;;;;-141.97;95.77;47757.41;5014201;28;20163;-82
2022/12/31 05:20:46;;;;;;;199.27;74.40;;;;;;;-141.97;94.81;47807.41;5014314;28;20228;-82
2022/12/31 05:23:13;;;;;;;193.30;74.13;;;;;;;-141.97;93.67;47888.13;5014367;28;20249;-82
2022/12/31 05:25:39;;;;;;;171.10;66.60;;;;;;;-141.97;91.97;47876.59;5014018;28;20402;-83
2022/12/31 05:28:04;;;;;;;240.50;95.07;;;;;;;-141.97;91.55;47765.09;5011780;28;20457;-82
2022/12/31 05:30:30;;;;;;;195.47;73.40;;;;;;;-141.97;91.45;47863.13;5013431;28;20489;-82
2022/12/31 05:32:55;;;;;;;140.73;55.13;;;;;;;-141.97;91.85;47788.19;5012623;28;20634;-82
2022/12/31 05:35:21;;;;;;;118.53;47.37;;;;;;;-141.97;91.24;47761.25;5015792;28;20173;-83
2022/12/31 05:37:46;;;;;;;99.30;40.17;;;;;;;-141.97;91.00;47730.50;5031755;28;20224;-83
2022/12/31 05:40:11;;;;;;;107.23;43.93;;;;;;;-141.97;90.19;47834.31;5032198;28;20193;-83
2022/12/31 05:42:38;;;;;;;114.33;44.70;;;;;;;-141.97;89.73;47817.00;5031755;28;20187;-82
2022/12/31 05:45:04;;;;;;;120.07;47.17;;;;;;;-141.97;89.86;47786.25;5029344;28;20186;-83
2022/12/31 05:47:30;;;;;;;107.40;44.13;;;;;;;-141.97;89.61;47784.34;5032121;28;20456;-82
2022/12/31 05:49:55;;;;;;;121.77;46.77;;;;;;;-141.97;89.90;47799.72;5031868;28;20420;-83
2022/12/31 05:52:21;;;;;;;118.97;47.03;;;;;;;-141.97;89.31;47788.19;5031304;28;20642;-83
2022/12/31 05:54:46;;;;;;;184.57;78.57;;;;;;;-141.97;89.19;47730.50;5037325;28;20174;-83
2022/12/31 05:57:12;;;;;;;334.83;112.93;;;;;;;-141.97;89.07;47838.16;5034249;28;20170;-84
2022/12/31 05:59:37;;;;;;;132.57;48.43;;;;;;;-141.97;88.60;47742.03;5032944;28;20177;-83
2022/12/31 06:02:03;;;;;;;98.80;41.00;;;;;;;-141.97;87.62;47876.59;5012987;28;20631;-83
2022/12/31 06:04:28;;;;;;;91.10;39.33;;;;;;;-141.97;87.06;47826.63;5033375;28;20169;-83
2022/12/31 06:06:54;;;;;;;84.70;36.07;;;;;;;-141.97;86.62;47709.38;5032946;28;20586;-84
2022/12/31 06:09:19;;;;;;;77.17;33.10;;;;;;;-141.97;86.90;47782.41;5032209;28;20188;-83
2022/12/31 06:11:45;;;;;;;70.00;31.27;;;;;;;-141.97;87.04;47799.72;5033298;28;20629;-83
2022/12/31 06:14:11;;;;;;;71.67;30.73;;;;;;;-141.97;86.97;47786.25;5033306;28;20249;-83
2022/12/31 06:16:38;;;;;;;80.53;34.33;;;;;;;-141.97;87.63;47768.94;5015268;28;20526;-83
2022/12/31 06:19:04;;;;;;;78.77;34.17;;;;;;;-141.97;87.79;47797.78;5033380;28;20409;-83
2022/12/31 06:21:29;;;;;;;99.77;38.50;;;;;;;-141.97;86.98;47807.41;5033526;28;20413;-83
2022/12/31 06:23:55;;;;;;;85.93;34.43;;;;;;;-141.97;87.06;47765.09;5033597;28;20178;-83
2022/12/31 06:26:20;;;;;;;101.77;43.60;;;;;;;-141.97;87.01;47795.88;5033400;28;20299;-82
2022/12/31 06:28:46;;;;;;;215.57;93.93;;;;;;;-141.97;86.73;47776.63;5034415;28;20181;-82
2022/12/31 06:31:14;;;;;;;165.83;68.27;;;;;;;-141.97;86.78;47813.16;5034718;28;20610;-83
2022/12/31 06:33:40;;;;;;;173.00;72.93;;;;;;;-141.97;86.61;47792.03;5033743;28;20542;-83
2022/12/31 06:36:08;;;;;;;136.50;61.03;;;;;;;-141.97;86.72;47830.47;5033953;28;20397;-82
2022/12/31 06:38:36;;;;;;;119.80;50.87;;;;;;;-141.97;86.67;47822.78;5033661;28;20464;-82
2022/12/31 06:41:21;;;;;;;105.67;41.00;;;;;;;-141.97;86.31;47826.63;5033509;28;20408;-82
2022/12/31 06:43:47;;;;;;;84.60;36.43;;;;;;;-141.97;85.50;47822.78;5032644;28;20409;-83
2022/12/31 06:46:15;;;;;;;88.07;37.63;;;;;;;-141.97;85.62;47811.25;5032964;28;20875;-83
2022/12/31 06:48:43;;;;;;;98.70;44.80;;;;;;;-141.97;85.50;47803.56;5034841;28;20417;-82
2022/12/31 06:51:17;;;;;;;121.53;51.73;;;;;;;-141.97;86.18;47792.03;5034793;28;20494;-83
2022/12/31 06:53:47;;;;;;;110.73;48.80;;;;;;;-141.97;86.48;47772.78;5034597;28;20436;-82
2022/12/31 06:56:21;;;;;;;119.73;55.27;;;;;;;-141.97;86.64;47811.25;5034335;28;20413;-84
2022/12/31 06:58:47;;;;;;;109.80;49.10;;;;;;;-141.97;86.60;47855.44;5034540;28;20417;-84
2022/12/31 07:01:32;;;;;;;125.23;55.97;;;;;;;-141.97;86.20;47832.38;5033473;28;20405;-83
2022/12/31 07:04:20;;;;;;;246.03;111.43;;;;;;;-141.97;86.20;47797.78;5035485;28;21233;-82
2022/12/31 07:07:15;;;;;;;175.33;78.37;;;;;;;-141.97;86.43;47826.63;5013514;28;20452;-81
2022/12/31 07:09:44;;;;;;;119.57;50.87;;;;;;;-141.97;86.10;47843.91;5030664;28;20433;-83
2022/12/31 07:12:33;;;;;;;154.97;67.77;;;;;;;-141.97;85.88;47828.53;5031010;28;20905;-81
2022/12/31 07:15:27;;;;;;;165.43;72.83;;;;;;;-141.97;87.03;47820.84;5031246;28;20405;-83
2022/12/31 07:18:04;;;;;;;275.67;111.37;;;;;;;-141.97;86.86;47790.09;5031462;28;20487;-82
2022/12/31 07:20:29;;;;;;;238.07;105.50;;;;;;;-141.97;86.57;47797.78;5013569;28;20408;-82
2022/12/31 07:22:55;;;;;;;188.77;80.83;;;;;;;-141.97;87.75;47815.09;5029928;28;20507;-82
2022/12/31 07:25:22;;;;;;;186.03;82.90;;;;;;;-141.97;89.41;47799.72;5030991;28;20567;-82
2022/12/31 07:28:26;;;;;;;166.23;75.50;;;;;;;-141.97;90.10;47836.22;5030671;28;20183;-82
2022/12/31 07:31:21;;;;;;;221.00;99.20;;;;;;;-141.97;90.48;47807.41;4993548;28;20859;-83
2022/12/31 07:34:08;;;;;;;152.70;62.13;;;;;;;-141.97;90.89;47807.41;4992500;28;20432;-82
2022/12/31 07:36:48;;;;;;;191.93;89.80;;;;;;;-141.97;90.20;47813.16;4992871;28;20859;-82
2022/12/31 07:39:30;;;;;;;223.87;107.67;;;;;;;-141.97;88.77;47811.25;4992677;28;20584;-82
2022/12/31 07:41:56;;;;;;;266.53;114.87;;;;;;;-141.97;88.08;47801.63;4992856;28;20433;-82
2022/12/31 07:44:46;;;;;;;172.80;74.53;;;;;;;-141.97;86.25;47784.34;4992877;28;20439;-82
2022/12/31 07:47:20;;;;;;;223.53;95.67;;;;;;;-141.97;86.52;47826.63;4992909;28;20195;-82
2022/12/31 07:49:47;;;;;;;185.60;84.30;;;;;;;-141.97;84.34;47799.72;4992744;28;20442;-82
2022/12/31 07:52:12;;;;;;;143.03;64.57;;;;;;;-141.97;81.03;47818.94;4976294;28;20431;-82
2022/12/31 07:54:38;;;;;;;131.57;57.23;;;;;;;-141.97;79.78;47888.13;4992594;28;20418;-82
2022/12/31 07:57:04;;;;;;;196.90;81.77;;;;;;;-141.97;78.45;47770.88;4992286;28;20171;-82
2022/12/31 08:00:04;;;;;;;215.93;93.80;;;;;;;-141.97;78.05;47811.25;4992381;28;20168;-82
2022/12/31 08:03:07;;;;;;;160.13;78.17;;;;;;;-141.97;77.04;47807.41;4991934;28;20434;-83
2022/12/31 08:05:59;;;;;;;137.37;65.73;;;;;;;-141.97;75.69;47799.72;4992810;28;20402;-82
2022/12/31 08:08:36;;;;;;;151.40;69.87;;;;;;;-141.97;75.04;47809.31;5025471;28;20476;-82
2022/12/31 08:11:27;;;;;;;151.17;72.73;;;;;;;-141.97;74.25;47809.31;5033614;28;20475;-81
2022/12/31 08:13:56;;;;;;;146.53;68.00;;;;;;;-141.97;73.78;47815.09;5033544;28;20925;-82
2022/12/31 08:16:22;;;;;;;156.00;73.43;;;;;;;-141.97;72.93;47822.78;5033793;28;20405;-82
2022/12/31 08:18:48;;;;;;;174.27;83.03;;;;;;;-141.97;72.90;47828.53;5034463;28;20457;-82
2022/12/31 08:21:29;;;;;;;154.07;72.67;;;;;;;-141.97;71.95;47826.63;5037708;28;20209;-83
2022/12/31 08:24:16;;;;;;;128.50;61.57;;;;;;;-141.97;71.50;47770.88;5033683;28;20172;-82
2022/12/31 08:27:02;;;;;;;148.00;67.33;;;;;;;-141.97;70.78;47807.41;5033778;28;20225;-81
2022/12/31 08:29:32;;;;;;;142.57;63.83;;;;;;;-141.97;70.54;47807.41;5033366;28;20166;-81
2022/12/31 08:32:06;;;;;;;147.53;56.27;;;;;;;-141.97;69.92;47809.31;5033259;28;20174;-81
2022/12/31 08:35:06;;;;;;;84.90;39.03;;;;;;;-141.97;69.00;47809.31;5041093;28;20605;-82
2022/12/31 08:37:54;;;;;;;108.07;52.70;;;;;;;-141.97;68.65;47809.31;4972012;28;20188;-85
2022/12/31 08:40:24;;;;;;;114.40;50.10;;;;;;;-141.97;68.76;47820.84;4972246;28;20183;-84
2022/12/31 08:42:52;;;;;;;122.27;55.40;;;;;;;-141.97;67.82;47847.75;4955723;28;20203;-83
2022/12/31 08:45:38;;;;;;;119.63;54.50;;;;;;;-141.97;67.41;47822.78;4971508;28;20172;-85
2022/12/31 08:48:29;;;;;;;116.47;57.20;;;;;;;-141.97;66.83;47815.09;4971182;28;20218;-83
2022/12/31 08:50:55;;;;;;;78.30;38.70;;;;;;;-141.97;66.54;47761.25;4952129;29;20180;-83
2022/12/31 08:53:21;;;;;;;69.97;34.87;;;;;;;-141.97;65.88;47807.41;4952496;29;20637;-83
2022/12/31 08:55:51;;;;;;;82.97;45.60;;;;;;;-141.97;65.27;47768.94;4952921;29;20240;-83
2022/12/31 08:58:39;;;;;;;470.63;262.27;;;;;;;-141.97;64.95;47801.63;4952363;29;20165;-84
2022/12/31 09:01:07;;;;;;;120.27;56.90;;;;;;;-141.97;64.87;47772.78;4952421;29;20664;-82
2022/12/31 09:03:49;;;;;;;90.87;46.40;;;;;;;-141.97;64.89;47826.63;4952660;29;20224;-83
2022/12/31 09:06:30;;;;;;;65.13;33.40;;;;;;;-141.97;64.06;47768.94;4952395;29;20173;-83
2022/12/31 09:09:16;;;;;;;56.07;29.40;;;;;;;-141.97;63.18;47792.03;4952884;29;20169;-82
2022/12/31 09:11:53;;;;;;;65.27;33.17;;;;;;;-141.97;62.58;47772.78;4952696;29;20180;-82
2022/12/31 09:14:41;;;;;;;59.47;30.87;;;;;;;-141.97;61.19;47811.25;5023772;28;20185;-82
2022/12/31 09:17:33;;;;;;;81.80;40.13;;;;;;;-141.97;61.68;47795.88;5032760;28;20162;-83
2022/12/31 09:19:59;;;;;;;61.27;31.60;;;;;;;-141.97;60.09;47793.94;5032933;28;20711;-83
2022/12/31 09:22:24;;;;;;;63.77;32.47;;;;;;;-141.97;60.21;47803.56;5032274;28;20331;-83
2022/12/31 09:24:50;;;;;;;83.83;40.67;;;;;;;-141.97;58.65;47763.19;5031910;28;20182;-82
2022/12/31 09:27:29;;;;;;;59.00;30.93;;;;;;;-141.97;58.21;47765.09;5031773;28;20198;-82
2022/12/31 09:29:54;;;;;;;57.93;30.63;;;;;;;-141.97;57.34;47822.78;5031491;28;20359;-82
2022/12/31 09:32:31;;;;;;;78.43;43.67;;;;;;;-141.97;56.92;47772.78;5031286;28;20185;-81
2022/12/31 09:35:28;;;;;;;80.93;35.83;;;;;;;-141.97;57.90;47755.50;5032083;28;20307;-83
2022/12/31 09:38:01;;;;;;;70.33;36.10;;;;;;;-141.97;58.08;47815.09;4951291;29;20370;-82
2022/12/31 09:40:48;;;;;;;69.00;36.30;;;;;;;-141.97;58.21;47792.03;4951783;29;20232;-82
2022/12/31 09:43:43;;;;;;;67.13;34.00;;;;;;;-141.97;57.69;47770.88;4951744;29;20190;-81
2022/12/31 09:46:47;;;;;;;240.13;100.07;;;;;;;-141.97;57.13;47790.09;4951907;29;20252;-81
2022/12/31 09:49:15;;;;;;;72.90;37.63;;;;;;;-141.97;56.84;47788.19;4894920;29;20190;-82
2022/12/31 09:52:14;;;;;;;122.10;67.63;;;;;;;-141.97;56.81;47792.03;4894547;29;20603;-81
2022/12/31 09:54:57;;;;;;;72.67;39.50;;;;;;;-141.97;55.86;47757.41;4880162;29;20680;-82
2022/12/31 09:57:42;;;;;;;89.83;45.03;;;;;;;-141.97;55.66;47797.78;4866772;29;20206;-84
2022/12/31 10:00:16;;;;;;;76.87;40.47;;;;;;;-141.97;55.23;47820.84;4888896;29;20219;-85
2022/12/31 10:03:00;;;;;;;64.43;36.60;;;;;;;-141.97;54.44;47792.03;4887873;29;20190;-85
2022/12/31 10:05:46;;;;;;;130.73;56.27;;;;;;;-141.97;53.85;47776.63;4887179;29;20262;-85
2022/12/31 10:08:45;;;;;;;92.30;45.80;;;;;;;-141.97;52.50;47784.34;4885051;29;20230;-84
2022/12/31 10:11:16;;;;;;;63.93;35.37;;;;;;;-141.97;52.36;47761.25;4821518;29;20230;-79
2022/12/31 10:13:53;;;;;;;201.23;89.60;;;;;;;-141.97;52.21;47761.25;4822202;29;20217;-80
2022/12/31 10:16:39;;;;;;;76.80;40.73;;;;;;;-141.97;52.33;47801.63;4895882;29;20190;-79
2022/12/31 10:19:22;;;;;;;165.10;71.73;;;;;;;-141.97;52.06;47788.19;4891597;29;20186;-80
2022/12/31 10:22:03;;;;;;;89.07;45.10;;;;;;;-141.97;51.91;47749.72;4885456;29;20247;-79
2022/12/31 10:24:47;;;;;;;215.57;136.27;;;;;;;-141.97;51.39;47730.50;4882448;29;20180;-79
2022/12/31 10:27:20;;;;;;;864.73;451.70;;;;;;;-141.97;51.53;47801.63;4953659;29;20271;-79
2022/12/31 10:29:47;;;;;;;76.10;40.77;;;;;;;-141.97;50.92;47795.88;4952892;29;20572;-78
2022/12/31 10:32:18;;;;;;;113.70;56.07;;;;;;;-141.97;51.43;47820.84;4953544;29;20179;-80
2022/12/31 10:34:43;;;;;;;90.90;51.17;;;;;;;-141.97;50.69;47768.94;4953246;29;20684;-80
2022/12/31 10:37:15;;;;;;;69.57;39.43;;;;;;;-141.97;51.01;47818.94;4952718;29;20161;-80
2022/12/31 10:39:40;;;;;;;76.97;41.73;;;;;;;-141.97;50.75;47743.97;4952399;29;20321;-80
2022/12/31 10:42:30;;;;;;;163.73;74.87;;;;;;;-141.97;50.35;47790.09;4952969;29;20197;-79
2022/12/31 10:45:33;;;;;;;324.27;159.23;;;;;;;-141.97;49.70;47743.97;4952599;29;20169;-79
2022/12/31 10:48:20;;;;;;;249.80;118.50;;;;;;;-141.97;49.16;47761.25;4960362;28;20218;-79
2022/12/31 10:51:17;;;;;;;361.33;166.70;;;;;;;-141.97;48.97;47765.09;5018736;28;20701;-80
2022/12/31 10:54:20;;;;;;;123.50;59.20;;;;;;;-141.97;49.13;47728.59;5016425;28;20163;-80
2022/12/31 10:57:10;;;;;;;68.53;35.93;;;;;;;-141.97;48.50;47776.63;5017651;28;20161;-79
2022/12/31 11:00:08;;;;;;;76.17;39.87;;;;;;;-141.97;48.63;47736.28;5017267;28;20186;-79
2022/12/31 11:02:53;;;;;;;59.83;34.63;;;;;;;-141.97;47.51;47763.19;5017331;28;20158;-79
2022/12/31 11:05:43;;;;;;;71.57;39.83;;;;;;;-141.97;48.09;47757.41;5020322;28;20163;-79
2022/12/31 11:08:14;;;;;;;229.33;103.87;;;;;;;-141.97;47.57;47749.72;5021127;28;20246;-80
2022/12/31 11:10:52;;;;;;;72.43;39.13;;;;;;;-141.97;48.17;47734.34;5002623;28;20178;-78
2022/12/31 11:14:04;;;;;;;358.93;160.73;;;;;;;-141.97;47.85;47732.44;5024377;28;20162;-79
2022/12/31 11:16:43;;;;;;;88.30;46.33;;;;;;;-141.97;48.12;47734.34;5024243;28;20159;-79
2022/12/31 11:19:33;;;;;;;76.57;41.47;;;;;;;-141.97;47.99;47742.03;5018075;28;20190;-81
2022/12/31 11:22:07;;;;;;;100.80;57.07;;;;;;;-141.97;47.70;47751.66;5015301;28;20163;-79
2022/12/31 11:24:38;;;;;;;83.53;49.03;;;;;;;-141.97;47.68;47761.25;4997813;28;20174;-79
2022/12/31 11:27:26;;;;;;;71.20;39.73;;;;;;;-141.97;47.37;47747.81;5014794;28;20195;-79
2022/12/31 11:30:22;;;;;;;62.47;37.53;;;;;;;-141.97;47.65;47751.66;5014953;28;20169;-81
2022/12/31 11:33:21;;;;;;;73.70;40.57;;;;;;;-141.97;48.20;47736.28;5015078;28;20313;-79
2022/12/31 11:36:15;;;;;;;87.40;49.03;;;;;;;-141.97;48.15;47740.13;4992965;28;20197;-81